sensor_id;sensor_type;location;lat;lon;timestamp;temperature;humidity
18229;DHT22;9239;50.932;3.142;2024-01-11T00:00:10;-2.90;99.90
18229;DHT22;9239;50.932;3.142;2024-01-11T00:02:38;-2.90;99.90
18229;DHT22;9239;50.932;3.142;2024-01-11T00:05:06;-2.90;99.90
18229;DHT22;9239;50.932;3.142;2024-01-11T00:07:34;-3.00;99.90
18229;DHT22;9239;50.932;3.142;2024-01-11T00:10:01;-3.00;99.90
18229;DHT22;9239;50.932;3.142;2024-01-11T00:12:29;-3.00;99.90
18229;DHT22;9239;50.932;3.142;2024-01-11T00:14:57;-3.00;99.90
18229;DHT22;9239;50.932;3.142;2024-01-11T00:17:25;-3.00;99.90
18229;DHT22;9239;50.932;3.142;2024-01-11T00:19:53;-2.90;99.90
18229;DHT22;9239;50.932;3.142;2024-01-11T00:22:20;-2.90;99.90
18229;DHT22;9239;50.932;3.142;2024-01-11T00:24:47;-2.90;99.90
18229;DHT22;9239;50.932;3.142;2024-01-11T00:27:14;-2.90;99.90
18229;DHT22;9239;50.932;3.142;2024-01-11T00:29:41;-2.90;99.90
18229;DHT22;9239;50.932;3.142;2024-01-11T00:32:08;-2.90;99.90
18229;DHT22;9239;50.932;3.142;2024-01-11T00:34:35;-2.80;99.90
18229;DHT22;9239;50.932;3.142;2024-01-11T00:37:04;-2.80;99.90
18229;DHT22;9239;50.932;3.142;2024-01-11T00:39:31;-2.80;99.90
18229;DHT22;9239;50.932;3.142;2024-01-11T00:41:58;-2.80;99.90
18229;DHT22;9239;50.932;3.142;2024-01-11T00:44:24;-2.80;99.90
18229;DHT22;9239;50.932;3.142;2024-01-11T00:46:51;-2.80;99.90
18229;DHT22;9239;50.932;3.142;2024-01-11T00:49:18;-2.80;99.90
18229;DHT22;9239;50.932;3.142;2024-01-11T00:51:46;-2.80;99.90
18229;DHT22;9239;50.932;3.142;2024-01-11T00:54:14;-2.80;99.90
18229;DHT22;9239;50.932;3.142;2024-01-11T00:56:41;-2.70;99.90
18229;DHT22;9239;50.932;3.142;2024-01-11T00:59:08;-2.60;99.90
18229;DHT22;9239;50.932;3.142;2024-01-11T01:01:35;-2.60;99.90
18229;DHT22;9239;50.932;3.142;2024-01-11T01:04:02;-2.70;99.90
18229;DHT22;9239;50.932;3.142;2024-01-11T01:06:29;-2.70;99.90
18229;DHT22;9239;50.932;3.142;2024-01-11T01:08:56;-2.80;99.90
18229;DHT22;9239;50.932;3.142;2024-01-11T01:11:25;-2.80;99.90
18229;DHT22;9239;50.932;3.142;2024-01-11T01:13:51;-2.90;99.90
18229;DHT22;9239;50.932;3.142;2024-01-11T01:16:18;-2.90;99.90
18229;DHT22;9239;50.932;3.142;2024-01-11T01:18:45;-2.90;99.90
18229;DHT22;9239;50.932;3.142;2024-01-11T01:21:12;-2.90;99.90
18229;DHT22;9239;50.932;3.142;2024-01-11T01:23:39;-3.00;99.90
18229;DHT22;9239;50.932;3.142;2024-01-11T01:26:06;-3.00;99.90
18229;DHT22;9239;50.932;3.142;2024-01-11T01:28:34;-2.90;99.90
18229;DHT22;9239;50.932;3.142;2024-01-11T01:31:02;-2.90;99.90
18229;DHT22;9239;50.932;3.142;2024-01-11T01:33:29;-2.80;99.90
18229;DHT22;9239;50.932;3.142;2024-01-11T01:35:55;-2.90;99.90
18229;DHT22;9239;50.932;3.142;2024-01-11T01:38:23;-3.00;99.90
18229;DHT22;9239;50.932;3.142;2024-01-11T01:40:50;-2.90;99.90
18229;DHT22;9239;50.932;3.142;2024-01-11T01:43:17;-3.00;99.90
18229;DHT22;9239;50.932;3.142;2024-01-11T01:45:45;-3.00;99.90
18229;DHT22;9239;50.932;3.142;2024-01-11T01:48:13;-3.10;99.90
18229;DHT22;9239;50.932;3.142;2024-01-11T01:50:40;-3.10;99.90
18229;DHT22;9239;50.932;3.142;2024-01-11T01:53:08;-3.10;99.90
18229;DHT22;9239;50.932;3.142;2024-01-11T01:55:35;-3.10;99.90
18229;DHT22;9239;50.932;3.142;2024-01-11T01:58:03;-3.20;99.90
18229;DHT22;9239;50.932;3.142;2024-01-11T02:00:31;-3.20;99.90
18229;DHT22;9239;50.932;3.142;2024-01-11T02:02:59;-3.20;99.90
18229;DHT22;9239;50.932;3.142;2024-01-11T02:05:27;-3.20;99.90
18229;DHT22;9239;50.932;3.142;2024-01-11T02:07:54;-3.10;99.90
18229;DHT22;9239;50.932;3.142;2024-01-11T02:10:23;-3.10;99.90
18229;DHT22;9239;50.932;3.142;2024-01-11T02:12:54;-3.10;99.90
18229;DHT22;9239;50.932;3.142;2024-01-11T02:15:21;-3.00;99.90
18229;DHT22;9239;50.932;3.142;2024-01-11T02:17:49;-3.00;99.90
18229;DHT22;9239;50.932;3.142;2024-01-11T02:20:17;-2.90;99.90
18229;DHT22;9239;50.932;3.142;2024-01-11T02:22:48;-2.90;99.90
18229;DHT22;9239;50.932;3.142;2024-01-11T02:25:18;-3.00;99.90
18229;DHT22;9239;50.932;3.142;2024-01-11T02:27:46;-3.00;99.90
18229;DHT22;9239;50.932;3.142;2024-01-11T02:30:14;-3.00;99.90
18229;DHT22;9239;50.932;3.142;2024-01-11T02:32:42;-3.10;99.90
18229;DHT22;9239;50.932;3.142;2024-01-11T02:35:10;-3.10;99.90
18229;DHT22;9239;50.932;3.142;2024-01-11T02:37:37;-3.10;99.90
18229;DHT22;9239;50.932;3.142;2024-01-11T02:40:07;-3.10;99.90
18229;DHT22;9239;50.932;3.142;2024-01-11T02:42:35;-3.10;99.90
18229;DHT22;9239;50.932;3.142;2024-01-11T02:45:03;-3.10;99.90
18229;DHT22;9239;50.932;3.142;2024-01-11T02:47:30;-3.10;99.90
18229;DHT22;9239;50.932;3.142;2024-01-11T02:49:57;-3.10;99.90
18229;DHT22;9239;50.932;3.142;2024-01-11T02:52:24;-3.10;99.90
18229;DHT22;9239;50.932;3.142;2024-01-11T02:54:51;-3.10;99.90
18229;DHT22;9239;50.932;3.142;2024-01-11T02:57:17;-3.20;99.90
18229;DHT22;9239;50.932;3.142;2024-01-11T02:59:45;-3.20;99.90
18229;DHT22;9239;50.932;3.142;2024-01-11T03:02:12;-3.30;99.90
18229;DHT22;9239;50.932;3.142;2024-01-11T03:04:39;-3.30;99.90
18229;DHT22;9239;50.932;3.142;2024-01-11T03:07:06;-3.30;99.90
18229;DHT22;9239;50.932;3.142;2024-01-11T03:09:33;-3.30;99.90
18229;DHT22;9239;50.932;3.142;2024-01-11T03:12:00;-3.30;99.90
18229;DHT22;9239;50.932;3.142;2024-01-11T03:14:27;-3.30;99.90
18229;DHT22;9239;50.932;3.142;2024-01-11T03:16:56;-3.20;99.90
18229;DHT22;9239;50.932;3.142;2024-01-11T03:19:23;-3.20;99.90
18229;DHT22;9239;50.932;3.142;2024-01-11T03:21:50;-3.20;99.90
18229;DHT22;9239;50.932;3.142;2024-01-11T03:24:17;-3.20;99.90
18229;DHT22;9239;50.932;3.142;2024-01-11T03:26:44;-3.30;99.90
18229;DHT22;9239;50.932;3.142;2024-01-11T03:29:11;-3.30;99.90
18229;DHT22;9239;50.932;3.142;2024-01-11T03:31:37;-3.30;99.90
18229;DHT22;9239;50.932;3.142;2024-01-11T03:34:08;-3.40;99.90
18229;DHT22;9239;50.932;3.142;2024-01-11T03:36:35;-3.40;99.90
18229;DHT22;9239;50.932;3.142;2024-01-11T03:39:02;-3.40;99.90
18229;DHT22;9239;50.932;3.142;2024-01-11T03:41:29;-3.20;99.90
18229;DHT22;9239;50.932;3.142;2024-01-11T03:43:56;-3.20;99.90
18229;DHT22;9239;50.932;3.142;2024-01-11T03:46:23;-3.20;99.90
18229;DHT22;9239;50.932;3.142;2024-01-11T03:48:50;-3.30;99.90
18229;DHT22;9239;50.932;3.142;2024-01-11T03:51:18;-3.30;99.90
18229;DHT22;9239;50.932;3.142;2024-01-11T03:53:45;-3.30;99.90
18229;DHT22;9239;50.932;3.142;2024-01-11T03:56:12;-3.30;99.90
18229;DHT22;9239;50.932;3.142;2024-01-11T03:58:39;-3.20;99.90
18229;DHT22;9239;50.932;3.142;2024-01-11T04:01:07;-3.20;99.90
18229;DHT22;9239;50.932;3.142;2024-01-11T04:03:35;-3.20;99.90
18229;DHT22;9239;50.932;3.142;2024-01-11T04:06:03;-3.20;99.90
18229;DHT22;9239;50.932;3.142;2024-01-11T04:08:31;-3.20;99.90
18229;DHT22;9239;50.932;3.142;2024-01-11T04:11:01;-3.10;99.90
18229;DHT22;9239;50.932;3.142;2024-01-11T04:13:28;-3.00;99.90
18229;DHT22;9239;50.932;3.142;2024-01-11T04:15:55;-3.00;99.90
18229;DHT22;9239;50.932;3.142;2024-01-11T04:18:22;-3.10;99.90
18229;DHT22;9239;50.932;3.142;2024-01-11T04:20:49;-3.10;99.90
18229;DHT22;9239;50.932;3.142;2024-01-11T04:23:16;-3.20;99.90
18229;DHT22;9239;50.932;3.142;2024-01-11T04:25:44;-3.10;99.90
18229;DHT22;9239;50.932;3.142;2024-01-11T04:28:11;-3.20;99.90
18229;DHT22;9239;50.932;3.142;2024-01-11T04:30:38;-3.20;99.90
18229;DHT22;9239;50.932;3.142;2024-01-11T04:33:05;-3.20;99.90
18229;DHT22;9239;50.932;3.142;2024-01-11T04:35:32;-3.30;99.90
18229;DHT22;9239;50.932;3.142;2024-01-11T04:37:59;-3.30;99.90
18229;DHT22;9239;50.932;3.142;2024-01-11T04:40:26;-3.30;99.90
18229;DHT22;9239;50.932;3.142;2024-01-11T04:42:54;-3.20;99.90
18229;DHT22;9239;50.932;3.142;2024-01-11T04:45:21;-3.30;99.90
18229;DHT22;9239;50.932;3.142;2024-01-11T04:47:50;-3.30;99.90
18229;DHT22;9239;50.932;3.142;2024-01-11T04:50:17;-3.30;99.90
18229;DHT22;9239;50.932;3.142;2024-01-11T04:52:44;-3.20;99.90
18229;DHT22;9239;50.932;3.142;2024-01-11T04:55:11;-3.20;99.90
18229;DHT22;9239;50.932;3.142;2024-01-11T04:57:38;-3.20;99.90
18229;DHT22;9239;50.932;3.142;2024-01-11T05:00:07;-3.20;99.90
18229;DHT22;9239;50.932;3.142;2024-01-11T05:02:35;-3.20;99.90
18229;DHT22;9239;50.932;3.142;2024-01-11T05:05:02;-3.20;99.90
18229;DHT22;9239;50.932;3.142;2024-01-11T05:07:29;-3.20;99.90
18229;DHT22;9239;50.932;3.142;2024-01-11T05:09:56;-3.20;99.90
18229;DHT22;9239;50.932;3.142;2024-01-11T05:12:23;-3.30;99.90
18229;DHT22;9239;50.932;3.142;2024-01-11T05:14:49;-3.30;99.90
18229;DHT22;9239;50.932;3.142;2024-01-11T05:17:18;-3.30;99.90
18229;DHT22;9239;50.932;3.142;2024-01-11T05:19:45;-3.30;99.90
18229;DHT22;9239;50.932;3.142;2024-01-11T05:22:12;-3.30;99.90
18229;DHT22;9239;50.932;3.142;2024-01-11T05:24:39;-3.30;99.90
18229;DHT22;9239;50.932;3.142;2024-01-11T05:27:05;-3.30;99.90
18229;DHT22;9239;50.932;3.142;2024-01-11T05:29:33;-3.30;99.90
18229;DHT22;9239;50.932;3.142;2024-01-11T05:31:59;-3.20;99.90
18229;DHT22;9239;50.932;3.142;2024-01-11T05:34:28;-3.30;99.90
18229;DHT22;9239;50.932;3.142;2024-01-11T05:36:55;-3.30;99.90
18229;DHT22;9239;50.932;3.142;2024-01-11T05:39:22;-3.30;99.90
18229;DHT22;9239;50.932;3.142;2024-01-11T05:41:49;-3.20;99.90
18229;DHT22;9239;50.932;3.142;2024-01-11T05:44:16;-3.30;99.90
18229;DHT22;9239;50.932;3.142;2024-01-11T05:46:43;-3.40;99.90
18229;DHT22;9239;50.932;3.142;2024-01-11T05:49:10;-3.30;99.90
18229;DHT22;9239;50.932;3.142;2024-01-11T05:51:38;-3.40;99.90
18229;DHT22;9239;50.932;3.142;2024-01-11T05:54:05;-3.30;99.90
18229;DHT22;9239;50.932;3.142;2024-01-11T05:56:32;-3.30;99.90
18229;DHT22;9239;50.932;3.142;2024-01-11T05:58:59;-3.30;99.90
18229;DHT22;9239;50.932;3.142;2024-01-11T06:01:26;-3.40;99.90
18229;DHT22;9239;50.932;3.142;2024-01-11T06:03:53;-3.30;99.90
18229;DHT22;9239;50.932;3.142;2024-01-11T06:06:20;-3.30;99.90
18229;DHT22;9239;50.932;3.142;2024-01-11T06:08:49;-3.40;99.90
18229;DHT22;9239;50.932;3.142;2024-01-11T06:11:16;-3.30;99.90
18229;DHT22;9239;50.932;3.142;2024-01-11T06:13:43;-3.30;99.90
18229;DHT22;9239;50.932;3.142;2024-01-11T06:16:10;-3.30;99.90
18229;DHT22;9239;50.932;3.142;2024-01-11T06:18:37;-3.30;99.90
18229;DHT22;9239;50.932;3.142;2024-01-11T06:21:04;-3.20;99.90
18229;DHT22;9239;50.932;3.142;2024-01-11T06:23:31;-3.20;99.90
18229;DHT22;9239;50.932;3.142;2024-01-11T06:26:00;-3.30;99.90
18229;DHT22;9239;50.932;3.142;2024-01-11T06:28:26;-3.30;99.90
18229;DHT22;9239;50.932;3.142;2024-01-11T06:30:53;-3.30;99.90
18229;DHT22;9239;50.932;3.142;2024-01-11T06:33:20;-3.10;99.90
18229;DHT22;9239;50.932;3.142;2024-01-11T06:35:47;-3.00;99.90
18229;DHT22;9239;50.932;3.142;2024-01-11T06:38:14;-2.90;99.90
18229;DHT22;9239;50.932;3.142;2024-01-11T06:40:41;-2.90;99.90
18229;DHT22;9239;50.932;3.142;2024-01-11T06:43:10;-2.90;99.90
18229;DHT22;9239;50.932;3.142;2024-01-11T06:45:37;-2.90;99.90
18229;DHT22;9239;50.932;3.142;2024-01-11T06:48:05;-2.90;99.90
18229;DHT22;9239;50.932;3.142;2024-01-11T06:50:33;-2.90;99.90
18229;DHT22;9239;50.932;3.142;2024-01-11T06:52:59;-3.00;99.90
18229;DHT22;9239;50.932;3.142;2024-01-11T06:55:27;-3.00;99.90
18229;DHT22;9239;50.932;3.142;2024-01-11T06:57:54;-3.00;99.90
18229;DHT22;9239;50.932;3.142;2024-01-11T07:00:22;-3.00;99.90
18229;DHT22;9239;50.932;3.142;2024-01-11T07:02:49;-3.00;99.90
18229;DHT22;9239;50.932;3.142;2024-01-11T07:05:16;-3.00;99.90
18229;DHT22;9239;50.932;3.142;2024-01-11T07:07:43;-3.10;99.90
18229;DHT22;9239;50.932;3.142;2024-01-11T07:10:10;-3.10;99.90
18229;DHT22;9239;50.932;3.142;2024-01-11T07:12:38;-3.10;99.90
18229;DHT22;9239;50.932;3.142;2024-01-11T07:15:08;-2.80;99.90
18229;DHT22;9239;50.932;3.142;2024-01-11T07:17:36;-2.80;99.90
18229;DHT22;9239;50.932;3.142;2024-01-11T07:20:05;-2.90;99.90
18229;DHT22;9239;50.932;3.142;2024-01-11T07:22:33;-2.90;99.90
18229;DHT22;9239;50.932;3.142;2024-01-11T07:25:00;-3.00;99.90
18229;DHT22;9239;50.932;3.142;2024-01-11T07:27:27;-3.00;99.90
18229;DHT22;9239;50.932;3.142;2024-01-11T07:29:54;-3.00;99.90
18229;DHT22;9239;50.932;3.142;2024-01-11T07:32:21;-3.00;99.90
18229;DHT22;9239;50.932;3.142;2024-01-11T07:34:49;-2.90;99.90
18229;DHT22;9239;50.932;3.142;2024-01-11T07:37:16;-2.80;99.90
18229;DHT22;9239;50.932;3.142;2024-01-11T07:39:43;-2.70;99.90
18229;DHT22;9239;50.932;3.142;2024-01-11T07:42:10;-2.70;99.90
18229;DHT22;9239;50.932;3.142;2024-01-11T07:44:37;-2.70;99.90
18229;DHT22;9239;50.932;3.142;2024-01-11T07:47:04;-2.80;99.90
18229;DHT22;9239;50.932;3.142;2024-01-11T07:49:32;-2.90;99.90
18229;DHT22;9239;50.932;3.142;2024-01-11T07:52:00;-3.00;99.90
18229;DHT22;9239;50.932;3.142;2024-01-11T07:54:27;-3.00;99.90
18229;DHT22;9239;50.932;3.142;2024-01-11T07:56:54;-3.00;99.90
18229;DHT22;9239;50.932;3.142;2024-01-11T07:59:21;-3.10;99.90
18229;DHT22;9239;50.932;3.142;2024-01-11T08:01:48;-3.10;99.90
18229;DHT22;9239;50.932;3.142;2024-01-11T08:04:15;-3.10;99.90
18229;DHT22;9239;50.932;3.142;2024-01-11T08:06:42;-3.10;99.90
18229;DHT22;9239;50.932;3.142;2024-01-11T08:09:11;-3.10;99.90
18229;DHT22;9239;50.932;3.142;2024-01-11T08:11:39;-3.10;99.90
18229;DHT22;9239;50.932;3.142;2024-01-11T08:14:06;-3.10;99.90
18229;DHT22;9239;50.932;3.142;2024-01-11T08:16:34;-3.10;99.90
18229;DHT22;9239;50.932;3.142;2024-01-11T08:19:01;-3.10;99.90
18229;DHT22;9239;50.932;3.142;2024-01-11T08:21:28;-3.10;99.90
18229;DHT22;9239;50.932;3.142;2024-01-11T08:23:55;-3.10;99.90
18229;DHT22;9239;50.932;3.142;2024-01-11T08:26:24;-3.00;99.90
18229;DHT22;9239;50.932;3.142;2024-01-11T08:28:51;-3.00;99.90
18229;DHT22;9239;50.932;3.142;2024-01-11T08:31:19;-3.00;99.90
18229;DHT22;9239;50.932;3.142;2024-01-11T08:33:46;-2.90;99.90
18229;DHT22;9239;50.932;3.142;2024-01-11T08:36:13;-2.90;99.90
18229;DHT22;9239;50.932;3.142;2024-01-11T08:38:40;-2.90;99.90
18229;DHT22;9239;50.932;3.142;2024-01-11T08:41:07;-2.70;99.90
18229;DHT22;9239;50.932;3.142;2024-01-11T08:43:36;-2.70;99.90
18229;DHT22;9239;50.932;3.142;2024-01-11T08:46:03;-2.70;99.90
18229;DHT22;9239;50.932;3.142;2024-01-11T08:48:30;-2.70;99.90
18229;DHT22;9239;50.932;3.142;2024-01-11T08:50:57;-2.80;99.90
18229;DHT22;9239;50.932;3.142;2024-01-11T08:53:24;-2.80;99.90
18229;DHT22;9239;50.932;3.142;2024-01-11T08:55:51;-2.70;99.90
18229;DHT22;9239;50.932;3.142;2024-01-11T08:58:18;-2.70;99.90
18229;DHT22;9239;50.932;3.142;2024-01-11T09:00:47;-2.60;99.90
18229;DHT22;9239;50.932;3.142;2024-01-11T09:03:14;-2.60;99.90
18229;DHT22;9239;50.932;3.142;2024-01-11T09:05:42;-2.60;99.90
18229;DHT22;9239;50.932;3.142;2024-01-11T09:08:09;-2.60;99.90
18229;DHT22;9239;50.932;3.142;2024-01-11T09:10:36;-2.50;99.90
18229;DHT22;9239;50.932;3.142;2024-01-11T09:13:03;-2.50;99.90
18229;DHT22;9239;50.932;3.142;2024-01-11T09:15:30;-2.40;99.90
18229;DHT22;9239;50.932;3.142;2024-01-11T09:17:58;-2.40;99.90
18229;DHT22;9239;50.932;3.142;2024-01-11T09:20:26;-2.30;99.90
18229;DHT22;9239;50.932;3.142;2024-01-11T09:22:53;-2.30;99.90
18229;DHT22;9239;50.932;3.142;2024-01-11T09:25:20;-2.20;99.90
18229;DHT22;9239;50.932;3.142;2024-01-11T09:27:47;-2.10;99.90
18229;DHT22;9239;50.932;3.142;2024-01-11T09:30:15;-2.10;99.90
18229;DHT22;9239;50.932;3.142;2024-01-11T09:32:42;-2.00;99.90
18229;DHT22;9239;50.932;3.142;2024-01-11T09:35:10;-2.00;99.90
18229;DHT22;9239;50.932;3.142;2024-01-11T09:37:37;-1.90;99.90
18229;DHT22;9239;50.932;3.142;2024-01-11T09:40:05;-1.90;99.90
18229;DHT22;9239;50.932;3.142;2024-01-11T09:42:36;-1.80;99.90
18229;DHT22;9239;50.932;3.142;2024-01-11T09:45:05;-1.70;99.90
18229;DHT22;9239;50.932;3.142;2024-01-11T09:47:35;-1.70;99.90
18229;DHT22;9239;50.932;3.142;2024-01-11T09:50:03;-1.60;99.90
18229;DHT22;9239;50.932;3.142;2024-01-11T09:52:31;-1.50;99.90
18229;DHT22;9239;50.932;3.142;2024-01-11T09:54:58;-1.50;99.90
18229;DHT22;9239;50.932;3.142;2024-01-11T09:57:29;-1.40;99.90
18229;DHT22;9239;50.932;3.142;2024-01-11T09:59:57;-1.40;99.90
18229;DHT22;9239;50.932;3.142;2024-01-11T10:02:26;-1.30;99.90
18229;DHT22;9239;50.932;3.142;2024-01-11T10:04:53;-1.30;99.90
18229;DHT22;9239;50.932;3.142;2024-01-11T10:07:22;-1.20;99.90
18229;DHT22;9239;50.932;3.142;2024-01-11T10:09:51;-1.20;99.90
18229;DHT22;9239;50.932;3.142;2024-01-11T10:12:20;-1.10;99.90
18229;DHT22;9239;50.932;3.142;2024-01-11T10:14:50;-1.00;99.90
18229;DHT22;9239;50.932;3.142;2024-01-11T10:17:17;-0.90;99.90
18229;DHT22;9239;50.932;3.142;2024-01-11T10:19:44;-0.80;99.90
18229;DHT22;9239;50.932;3.142;2024-01-11T10:22:11;-0.60;99.90
18229;DHT22;9239;50.932;3.142;2024-01-11T10:24:42;-0.60;99.90
18229;DHT22;9239;50.932;3.142;2024-01-11T10:27:11;-0.50;99.90
18229;DHT22;9239;50.932;3.142;2024-01-11T10:29:38;-0.50;99.90
18229;DHT22;9239;50.932;3.142;2024-01-11T10:32:05;-0.40;99.90
18229;DHT22;9239;50.932;3.142;2024-01-11T10:34:33;-0.30;99.90
18229;DHT22;9239;50.932;3.142;2024-01-11T10:37:00;-0.20;99.90
18229;DHT22;9239;50.932;3.142;2024-01-11T10:39:27;-0.10;99.90
18229;DHT22;9239;50.932;3.142;2024-01-11T10:42:02;-0.10;99.90
18229;DHT22;9239;50.932;3.142;2024-01-11T10:44:34;0.00;99.90
18229;DHT22;9239;50.932;3.142;2024-01-11T10:47:03;0.00;99.90
18229;DHT22;9239;50.932;3.142;2024-01-11T10:49:33;0.00;99.90
18229;DHT22;9239;50.932;3.142;2024-01-11T10:52:02;0.10;99.90
18229;DHT22;9239;50.932;3.142;2024-01-11T10:54:30;0.10;99.90
18229;DHT22;9239;50.932;3.142;2024-01-11T10:56:59;0.20;99.90
18229;DHT22;9239;50.932;3.142;2024-01-11T10:59:27;0.20;99.90
18229;DHT22;9239;50.932;3.142;2024-01-11T11:01:57;0.30;99.90
18229;DHT22;9239;50.932;3.142;2024-01-11T11:04:25;0.30;99.90
18229;DHT22;9239;50.932;3.142;2024-01-11T11:06:55;0.40;99.90
18229;DHT22;9239;50.932;3.142;2024-01-11T11:09:23;0.40;99.90
18229;DHT22;9239;50.932;3.142;2024-01-11T11:11:50;0.50;99.90
18229;DHT22;9239;50.932;3.142;2024-01-11T11:14:18;0.50;99.90
18229;DHT22;9239;50.932;3.142;2024-01-11T11:16:46;0.50;99.90
18229;DHT22;9239;50.932;3.142;2024-01-11T11:19:15;0.60;99.90
18229;DHT22;9239;50.932;3.142;2024-01-11T11:21:42;0.60;99.90
18229;DHT22;9239;50.932;3.142;2024-01-11T11:24:10;0.70;99.90
18229;DHT22;9239;50.932;3.142;2024-01-11T11:26:37;0.80;99.90
18229;DHT22;9239;50.932;3.142;2024-01-11T11:29:04;0.90;99.90
18229;DHT22;9239;50.932;3.142;2024-01-11T11:31:37;0.90;99.90
18229;DHT22;9239;50.932;3.142;2024-01-11T11:34:05;1.00;99.90
18229;DHT22;9239;50.932;3.142;2024-01-11T11:36:34;1.10;99.90
18229;DHT22;9239;50.932;3.142;2024-01-11T11:39:02;1.10;99.90
18229;DHT22;9239;50.932;3.142;2024-01-11T11:41:30;1.10;99.90
18229;DHT22;9239;50.932;3.142;2024-01-11T11:44:01;1.20;99.90
18229;DHT22;9239;50.932;3.142;2024-01-11T11:46:28;1.20;99.90
18229;DHT22;9239;50.932;3.142;2024-01-11T11:48:57;1.20;99.90
18229;DHT22;9239;50.932;3.142;2024-01-11T11:51:24;1.20;99.90
18229;DHT22;9239;50.932;3.142;2024-01-11T11:53:52;1.30;99.90
18229;DHT22;9239;50.932;3.142;2024-01-11T11:56:20;1.40;99.90
18229;DHT22;9239;50.932;3.142;2024-01-11T11:58:48;1.40;99.90
18229;DHT22;9239;50.932;3.142;2024-01-11T12:01:17;1.50;99.90
18229;DHT22;9239;50.932;3.142;2024-01-11T12:03:45;1.50;99.90
18229;DHT22;9239;50.932;3.142;2024-01-11T12:06:16;1.50;99.90
18229;DHT22;9239;50.932;3.142;2024-01-11T12:08:43;1.60;99.90
18229;DHT22;9239;50.932;3.142;2024-01-11T12:11:16;1.60;99.90
18229;DHT22;9239;50.932;3.142;2024-01-11T12:13:44;1.60;99.90
18229;DHT22;9239;50.932;3.142;2024-01-11T12:16:11;1.60;99.90
18229;DHT22;9239;50.932;3.142;2024-01-11T12:18:38;1.60;99.90
18229;DHT22;9239;50.932;3.142;2024-01-11T12:21:05;1.70;99.90
18229;DHT22;9239;50.932;3.142;2024-01-11T12:23:33;1.70;99.90
18229;DHT22;9239;50.932;3.142;2024-01-11T12:26:01;1.80;99.90
18229;DHT22;9239;50.932;3.142;2024-01-11T12:28:32;1.90;99.90
18229;DHT22;9239;50.932;3.142;2024-01-11T12:30:59;1.80;99.90
18229;DHT22;9239;50.932;3.142;2024-01-11T12:33:27;2.00;99.90
18229;DHT22;9239;50.932;3.142;2024-01-11T12:35:54;2.00;99.90
18229;DHT22;9239;50.932;3.142;2024-01-11T12:38:21;2.00;99.90
18229;DHT22;9239;50.932;3.142;2024-01-11T12:40:48;2.00;99.90
18229;DHT22;9239;50.932;3.142;2024-01-11T12:43:15;2.00;99.90
18229;DHT22;9239;50.932;3.142;2024-01-11T12:45:44;2.00;99.90
18229;DHT22;9239;50.932;3.142;2024-01-11T12:48:11;2.00;99.90
18229;DHT22;9239;50.932;3.142;2024-01-11T12:50:40;2.10;99.90
18229;DHT22;9239;50.932;3.142;2024-01-11T12:53:08;2.10;99.90
18229;DHT22;9239;50.932;3.142;2024-01-11T12:55:37;2.20;99.90
18229;DHT22;9239;50.932;3.142;2024-01-11T12:58:06;2.30;99.90
18229;DHT22;9239;50.932;3.142;2024-01-11T13:00:33;2.30;99.90
18229;DHT22;9239;50.932;3.142;2024-01-11T13:03:01;2.30;99.90
18229;DHT22;9239;50.932;3.142;2024-01-11T13:05:28;2.20;99.90
18229;DHT22;9239;50.932;3.142;2024-01-11T13:07:55;2.20;99.90
18229;DHT22;9239;50.932;3.142;2024-01-11T13:10:22;2.30;99.90
18229;DHT22;9239;50.932;3.142;2024-01-11T13:12:53;2.30;99.90
18229;DHT22;9239;50.932;3.142;2024-01-11T13:15:21;2.30;99.90
18229;DHT22;9239;50.932;3.142;2024-01-11T13:17:49;2.40;99.90
18229;DHT22;9239;50.932;3.142;2024-01-11T13:20:17;2.40;99.90
18229;DHT22;9239;50.932;3.142;2024-01-11T13:22:44;2.40;99.90
18229;DHT22;9239;50.932;3.142;2024-01-11T13:25:11;2.50;99.90
18229;DHT22;9239;50.932;3.142;2024-01-11T13:27:38;2.50;99.90
18229;DHT22;9239;50.932;3.142;2024-01-11T13:30:06;2.50;99.90
18229;DHT22;9239;50.932;3.142;2024-01-11T13:32:34;2.60;99.90
18229;DHT22;9239;50.932;3.142;2024-01-11T13:35:01;2.60;99.90
18229;DHT22;9239;50.932;3.142;2024-01-11T13:37:30;2.60;99.90
18229;DHT22;9239;50.932;3.142;2024-01-11T13:39:57;2.70;99.90
18229;DHT22;9239;50.932;3.142;2024-01-11T13:42:24;2.70;99.90
18229;DHT22;9239;50.932;3.142;2024-01-11T13:44:51;2.70;99.90
18229;DHT22;9239;50.932;3.142;2024-01-11T13:47:18;2.70;99.90
18229;DHT22;9239;50.932;3.142;2024-01-11T13:49:46;2.70;99.90
18229;DHT22;9239;50.932;3.142;2024-01-11T13:52:12;2.70;99.90
18229;DHT22;9239;50.932;3.142;2024-01-11T13:54:41;2.80;99.90
18229;DHT22;9239;50.932;3.142;2024-01-11T13:57:09;2.70;99.90
18229;DHT22;9239;50.932;3.142;2024-01-11T13:59:36;2.70;99.90
18229;DHT22;9239;50.932;3.142;2024-01-11T14:02:04;2.70;99.90
18229;DHT22;9239;50.932;3.142;2024-01-11T14:04:31;2.70;99.90
18229;DHT22;9239;50.932;3.142;2024-01-11T14:06:58;2.70;99.90
18229;DHT22;9239;50.932;3.142;2024-01-11T14:09:25;2.70;99.90
18229;DHT22;9239;50.932;3.142;2024-01-11T14:11:54;2.60;99.90
18229;DHT22;9239;50.932;3.142;2024-01-11T14:14:21;2.60;99.90
18229;DHT22;9239;50.932;3.142;2024-01-11T14:16:48;2.50;99.90
18229;DHT22;9239;50.932;3.142;2024-01-11T14:19:17;2.50;99.90
18229;DHT22;9239;50.932;3.142;2024-01-11T14:21:43;2.50;99.90
18229;DHT22;9239;50.932;3.142;2024-01-11T14:24:10;2.50;99.90
18229;DHT22;9239;50.932;3.142;2024-01-11T14:26:37;2.40;99.90
18229;DHT22;9239;50.932;3.142;2024-01-11T14:29:07;2.50;99.90
18229;DHT22;9239;50.932;3.142;2024-01-11T14:31:34;2.40;99.90
18229;DHT22;9239;50.932;3.142;2024-01-11T14:34:01;2.40;99.90
18229;DHT22;9239;50.932;3.142;2024-01-11T14:36:28;2.60;99.90
18229;DHT22;9239;50.932;3.142;2024-01-11T14:38:56;2.70;99.90
18229;DHT22;9239;50.932;3.142;2024-01-11T14:41:23;2.70;99.90
18229;DHT22;9239;50.932;3.142;2024-01-11T14:43:50;2.80;99.90
18229;DHT22;9239;50.932;3.142;2024-01-11T14:46:18;2.90;99.90
18229;DHT22;9239;50.932;3.142;2024-01-11T14:48:45;2.90;99.90
18229;DHT22;9239;50.932;3.142;2024-01-11T14:51:12;3.00;99.90
18229;DHT22;9239;50.932;3.142;2024-01-11T14:53:39;3.00;99.90
18229;DHT22;9239;50.932;3.142;2024-01-11T14:56:06;2.90;99.90
18229;DHT22;9239;50.932;3.142;2024-01-11T14:58:33;3.00;99.90
18229;DHT22;9239;50.932;3.142;2024-01-11T15:01:00;2.90;99.90
18229;DHT22;9239;50.932;3.142;2024-01-11T15:03:29;2.80;99.90
18229;DHT22;9239;50.932;3.142;2024-01-11T15:05:56;2.60;99.90
18229;DHT22;9239;50.932;3.142;2024-01-11T15:08:23;2.60;99.90
18229;DHT22;9239;50.932;3.142;2024-01-11T15:10:49;2.70;99.90
18229;DHT22;9239;50.932;3.142;2024-01-11T15:13:16;2.70;99.90
18229;DHT22;9239;50.932;3.142;2024-01-11T15:15:43;2.70;99.90
18229;DHT22;9239;50.932;3.142;2024-01-11T15:18:10;2.60;99.90
18229;DHT22;9239;50.932;3.142;2024-01-11T15:20:39;2.60;99.90
18229;DHT22;9239;50.932;3.142;2024-01-11T15:23:05;2.70;99.90
18229;DHT22;9239;50.932;3.142;2024-01-11T15:25:32;2.70;99.90
18229;DHT22;9239;50.932;3.142;2024-01-11T15:27:59;3.00;99.90
18229;DHT22;9239;50.932;3.142;2024-01-11T15:30:26;3.20;99.90
18229;DHT22;9239;50.932;3.142;2024-01-11T15:32:53;3.20;99.90
18229;DHT22;9239;50.932;3.142;2024-01-11T15:35:20;3.00;99.90
18229;DHT22;9239;50.932;3.142;2024-01-11T15:37:48;3.00;99.90
18229;DHT22;9239;50.932;3.142;2024-01-11T15:40:15;2.90;99.90
18229;DHT22;9239;50.932;3.142;2024-01-11T15:42:44;2.80;99.90
18229;DHT22;9239;50.932;3.142;2024-01-11T15:45:11;2.80;99.90
18229;DHT22;9239;50.932;3.142;2024-01-11T15:47:38;2.90;99.90
18229;DHT22;9239;50.932;3.142;2024-01-11T15:50:06;2.80;99.90
18229;DHT22;9239;50.932;3.142;2024-01-11T15:52:36;2.80;99.90